sensor_id;sensor_type;location;lat;lon;timestamp;P1;durP1;ratioP1;P2;durP2;ratioP2
16506;SDS011;8366;51.020;7.642;2023-02-28T00:01:18;12.40;;;5.37;;
16506;SDS011;8366;51.020;7.642;2023-02-28T00:03:44;9.07;;;4.60;;
16506;SDS011;8366;51.020;7.642;2023-02-28T00:06:11;10.83;;;4.70;;
16506;SDS011;8366;51.020;7.642;2023-02-28T00:08:39;8.43;;;4.67;;
16506;SDS011;8366;51.020;7.642;2023-02-28T00:11:07;8.07;;;4.90;;
16506;SDS011;8366;51.020;7.642;2023-02-28T00:13:35;7.53;;;5.17;;
16506;SDS011;8366;51.020;7.642;2023-02-28T00:16:03;8.90;;;5.27;;
16506;SDS011;8366;51.020;7.642;2023-02-28T00:18:31;10.27;;;5.17;;
16506;SDS011;8366;51.020;7.642;2023-02-28T00:20:57;10.03;;;5.37;;
16506;SDS011;8366;51.020;7.642;2023-02-28T00:23:24;8.97;;;5.27;;
16506;SDS011;8366;51.020;7.642;2023-02-28T00:25:52;9.60;;;4.93;;
16506;SDS011;8366;51.020;7.642;2023-02-28T00:28:19;6.53;;;4.57;;
16506;SDS011;8366;51.020;7.642;2023-02-28T00:30:46;8.20;;;4.50;;
16506;SDS011;8366;51.020;7.642;2023-02-28T00:33:13;7.43;;;4.17;;
16506;SDS011;8366;51.020;7.642;2023-02-28T00:35:40;6.90;;;3.60;;
16506;SDS011;8366;51.020;7.642;2023-02-28T00:38:06;5.77;;;3.60;;
16506;SDS011;8366;51.020;7.642;2023-02-28T00:40:33;8.10;;;4.13;;
16506;SDS011;8366;51.020;7.642;2023-02-28T00:43:01;6.90;;;4.20;;
16506;SDS011;8366;51.020;7.642;2023-02-28T00:45:28;5.30;;;3.33;;
16506;SDS011;8366;51.020;7.642;2023-02-28T00:47:54;7.83;;;4.50;;
16506;SDS011;8366;51.020;7.642;2023-02-28T00:50:21;10.03;;;4.03;;
16506;SDS011;8366;51.020;7.642;2023-02-28T00:52:47;7.57;;;4.07;;
16506;SDS011;8366;51.020;7.642;2023-02-28T00:55:14;7.20;;;3.90;;
16506;SDS011;8366;51.020;7.642;2023-02-28T00:57:41;7.73;;;3.90;;
16506;SDS011;8366;51.020;7.642;2023-02-28T01:00:09;6.33;;;3.67;;
16506;SDS011;8366;51.020;7.642;2023-02-28T01:02:37;6.63;;;4.20;;
16506;SDS011;8366;51.020;7.642;2023-02-28T01:05:03;6.40;;;3.53;;
16506;SDS011;8366;51.020;7.642;2023-02-28T01:07:31;7.27;;;4.00;;
16506;SDS011;8366;51.020;7.642;2023-02-28T01:09:57;5.27;;;3.87;;
16506;SDS011;8366;51.020;7.642;2023-02-28T01:12:24;10.67;;;4.07;;
16506;SDS011;8366;51.020;7.642;2023-02-28T01:14:50;5.90;;;3.73;;
16506;SDS011;8366;51.020;7.642;2023-02-28T01:17:18;5.73;;;3.67;;
16506;SDS011;8366;51.020;7.642;2023-02-28T01:19:45;7.57;;;4.30;;
16506;SDS011;8366;51.020;7.642;2023-02-28T01:22:11;8.20;;;4.20;;
16506;SDS011;8366;51.020;7.642;2023-02-28T01:24:38;7.37;;;4.00;;
16506;SDS011;8366;51.020;7.642;2023-02-28T01:27:04;8.07;;;3.90;;
16506;SDS011;8366;51.020;7.642;2023-02-28T01:29:31;10.97;;;4.43;;
16506;SDS011;8366;51.020;7.642;2023-02-28T01:31:57;5.50;;;3.77;;
16506;SDS011;8366;51.020;7.642;2023-02-28T01:34:26;5.67;;;3.60;;
16506;SDS011;8366;51.020;7.642;2023-02-28T01:36:53;8.27;;;4.07;;
16506;SDS011;8366;51.020;7.642;2023-02-28T01:39:19;7.43;;;3.83;;
16506;SDS011;8366;51.020;7.642;2023-02-28T01:41:46;6.63;;;3.63;;
16506;SDS011;8366;51.020;7.642;2023-02-28T01:47:17;5.13;;;3.30;;
16506;SDS011;8366;51.020;7.642;2023-02-28T01:49:45;5.63;;;3.47;;
16506;SDS011;8366;51.020;7.642;2023-02-28T01:52:12;6.20;;;3.63;;
16506;SDS011;8366;51.020;7.642;2023-02-28T01:54:43;5.67;;;3.77;;
16506;SDS011;8366;51.020;7.642;2023-02-28T01:57:13;7.10;;;3.57;;
16506;SDS011;8366;51.020;7.642;2023-02-28T01:59:43;4.83;;;3.23;;
16506;SDS011;8366;51.020;7.642;2023-02-28T02:02:13;5.90;;;3.40;;
16506;SDS011;8366;51.020;7.642;2023-02-28T02:04:41;5.97;;;3.73;;
16506;SDS011;8366;51.020;7.642;2023-02-28T02:07:13;4.03;;;3.00;;
16506;SDS011;8366;51.020;7.642;2023-02-28T02:09:40;5.17;;;3.30;;
16506;SDS011;8366;51.020;7.642;2023-02-28T02:12:13;3.97;;;2.57;;
16506;SDS011;8366;51.020;7.642;2023-02-28T02:14:51;4.50;;;2.80;;
16506;SDS011;8366;51.020;7.642;2023-02-28T02:17:25;4.17;;;2.60;;
16506;SDS011;8366;51.020;7.642;2023-02-28T02:22:58;3.43;;;2.30;;
16506;SDS011;8366;51.020;7.642;2023-02-28T02:25:49;3.10;;;2.10;;
16506;SDS011;8366;51.020;7.642;2023-02-28T02:28:29;4.20;;;2.37;;
16506;SDS011;8366;51.020;7.642;2023-02-28T02:31:09;4.57;;;2.67;;
16506;SDS011;8366;51.020;7.642;2023-02-28T02:36:51;4.47;;;3.03;;
16506;SDS011;8366;51.020;7.642;2023-02-28T02:39:21;3.90;;;2.70;;
16506;SDS011;8366;51.020;7.642;2023-02-28T02:41:52;5.53;;;2.80;;
16506;SDS011;8366;51.020;7.642;2023-02-28T02:44:20;3.67;;;2.70;;
16506;SDS011;8366;51.020;7.642;2023-02-28T02:46:49;3.10;;;2.80;;
16506;SDS011;8366;51.020;7.642;2023-02-28T02:49:20;5.13;;;3.17;;
16506;SDS011;8366;51.020;7.642;2023-02-28T02:51:49;3.97;;;3.10;;
16506;SDS011;8366;51.020;7.642;2023-02-28T02:54:19;5.27;;;3.23;;
16506;SDS011;8366;51.020;7.642;2023-02-28T02:56:48;5.03;;;2.80;;
16506;SDS011;8366;51.020;7.642;2023-02-28T02:59:16;6.20;;;3.37;;
16506;SDS011;8366;51.020;7.642;2023-02-28T03:01:46;4.10;;;2.87;;
16506;SDS011;8366;51.020;7.642;2023-02-28T03:04:16;4.97;;;3.00;;
16506;SDS011;8366;51.020;7.642;2023-02-28T03:06:45;4.70;;;2.70;;
16506;SDS011;8366;51.020;7.642;2023-02-28T03:09:13;4.67;;;2.53;;
16506;SDS011;8366;51.020;7.642;2023-02-28T03:11:39;4.27;;;2.50;;
16506;SDS011;8366;51.020;7.642;2023-02-28T03:14:19;4.33;;;2.97;;
16506;SDS011;8366;51.020;7.642;2023-02-28T03:17:03;6.77;;;2.83;;
16506;SDS011;8366;51.020;7.642;2023-02-28T03:19:44;4.37;;;2.80;;
16506;SDS011;8366;51.020;7.642;2023-02-28T03:22:21;3.67;;;2.70;;
16506;SDS011;8366;51.020;7.642;2023-02-28T03:24:56;5.10;;;3.03;;
16506;SDS011;8366;51.020;7.642;2023-02-28T03:27:27;5.00;;;3.30;;
16506;SDS011;8366;51.020;7.642;2023-02-28T03:29:58;3.80;;;2.80;;
16506;SDS011;8366;51.020;7.642;2023-02-28T03:32:27;5.77;;;3.10;;
16506;SDS011;8366;51.020;7.642;2023-02-28T03:34:56;3.87;;;2.73;;
16506;SDS011;8366;51.020;7.642;2023-02-28T03:37:28;4.67;;;2.80;;
16506;SDS011;8366;51.020;7.642;2023-02-28T03:39:58;3.57;;;2.90;;
16506;SDS011;8366;51.020;7.642;2023-02-28T03:42:27;4.27;;;2.50;;
16506;SDS011;8366;51.020;7.642;2023-02-28T03:44:56;4.30;;;2.27;;
16506;SDS011;8366;51.020;7.642;2023-02-28T03:47:24;4.17;;;2.70;;
16506;SDS011;8366;51.020;7.642;2023-02-28T03:49:53;2.73;;;2.50;;
16506;SDS011;8366;51.020;7.642;2023-02-28T03:52:23;3.50;;;2.70;;
16506;SDS011;8366;51.020;7.642;2023-02-28T03:54:52;4.87;;;2.60;;
16506;SDS011;8366;51.020;7.642;2023-02-28T03:57:24;3.60;;;2.77;;
16506;SDS011;8366;51.020;7.642;2023-02-28T03:59:54;2.87;;;2.50;;
16506;SDS011;8366;51.020;7.642;2023-02-28T04:02:22;3.00;;;2.60;;
16506;SDS011;8366;51.020;7.642;2023-02-28T04:04:49;3.37;;;2.70;;
16506;SDS011;8366;51.020;7.642;2023-02-28T04:07:16;4.97;;;2.97;;
16506;SDS011;8366;51.020;7.642;2023-02-28T04:09:43;4.50;;;2.93;;
16506;SDS011;8366;51.020;7.642;2023-02-28T04:12:09;2.83;;;2.50;;
16506;SDS011;8366;51.020;7.642;2023-02-28T04:14:37;4.03;;;2.90;;
16506;SDS011;8366;51.020;7.642;2023-02-28T04:17:04;4.73;;;2.97;;
16506;SDS011;8366;51.020;7.642;2023-02-28T04:19:30;3.23;;;2.33;;
16506;SDS011;8366;51.020;7.642;2023-02-28T04:21:57;4.03;;;2.70;;
16506;SDS011;8366;51.020;7.642;2023-02-28T04:24:26;3.77;;;2.87;;
16506;SDS011;8366;51.020;7.642;2023-02-28T04:26:54;3.03;;;2.57;;
16506;SDS011;8366;51.020;7.642;2023-02-28T04:29:22;6.70;;;2.93;;
16506;SDS011;8366;51.020;7.642;2023-02-28T04:31:51;6.10;;;3.13;;
16506;SDS011;8366;51.020;7.642;2023-02-28T04:34:19;5.23;;;2.73;;
16506;SDS011;8366;51.020;7.642;2023-02-28T04:36:46;3.50;;;2.67;;
16506;SDS011;8366;51.020;7.642;2023-02-28T04:39:14;4.77;;;2.60;;
16506;SDS011;8366;51.020;7.642;2023-02-28T04:41:40;4.03;;;2.50;;
16506;SDS011;8366;51.020;7.642;2023-02-28T04:44:07;2.60;;;2.30;;
16506;SDS011;8366;51.020;7.642;2023-02-28T04:46:33;3.17;;;2.37;;
16506;SDS011;8366;51.020;7.642;2023-02-28T04:49:01;4.67;;;3.27;;
16506;SDS011;8366;51.020;7.642;2023-02-28T04:51:28;5.47;;;3.20;;
16506;SDS011;8366;51.020;7.642;2023-02-28T04:53:54;4.87;;;2.93;;
16506;SDS011;8366;51.020;7.642;2023-02-28T04:56:21;3.63;;;2.90;;
16506;SDS011;8366;51.020;7.642;2023-02-28T04:58:48;4.10;;;2.90;;
16506;SDS011;8366;51.020;7.642;2023-02-28T05:01:17;5.20;;;3.20;;
16506;SDS011;8366;51.020;7.642;2023-02-28T05:03:45;5.10;;;3.63;;
16506;SDS011;8366;51.020;7.642;2023-02-28T05:06:13;3.60;;;2.70;;
16506;SDS011;8366;51.020;7.642;2023-02-28T05:08:40;5.10;;;3.37;;
16506;SDS011;8366;51.020;7.642;2023-02-28T05:11:08;4.77;;;3.30;;
16506;SDS011;8366;51.020;7.642;2023-02-28T05:13:40;6.10;;;3.40;;
16506;SDS011;8366;51.020;7.642;2023-02-28T05:16:06;5.20;;;3.20;;
16506;SDS011;8366;51.020;7.642;2023-02-28T05:18:33;4.97;;;3.30;;
16506;SDS011;8366;51.020;7.642;2023-02-28T05:20:59;5.87;;;3.60;;
16506;SDS011;8366;51.020;7.642;2023-02-28T05:23:28;8.03;;;3.63;;
16506;SDS011;8366;51.020;7.642;2023-02-28T05:25:55;3.93;;;3.30;;
16506;SDS011;8366;51.020;7.642;2023-02-28T05:28:21;7.40;;;3.73;;
16506;SDS011;8366;51.020;7.642;2023-02-28T05:30:48;6.63;;;3.43;;
16506;SDS011;8366;51.020;7.642;2023-02-28T05:33:15;7.60;;;4.10;;
16506;SDS011;8366;51.020;7.642;2023-02-28T05:35:42;5.50;;;3.90;;
16506;SDS011;8366;51.020;7.642;2023-02-28T05:38:08;5.60;;;4.00;;
16506;SDS011;8366;51.020;7.642;2023-02-28T05:40:36;7.57;;;3.93;;
16506;SDS011;8366;51.020;7.642;2023-02-28T05:43:04;6.80;;;3.67;;
16506;SDS011;8366;51.020;7.642;2023-02-28T05:45:31;6.53;;;3.60;;
16506;SDS011;8366;51.020;7.642;2023-02-28T05:47:57;5.57;;;3.53;;
16506;SDS011;8366;51.020;7.642;2023-02-28T05:50:24;4.90;;;3.70;;
16506;SDS011;8366;51.020;7.642;2023-02-28T05:52:50;5.13;;;3.50;;
16506;SDS011;8366;51.020;7.642;2023-02-28T05:55:17;5.67;;;3.60;;
16506;SDS011;8366;51.020;7.642;2023-02-28T05:57:46;6.33;;;3.30;;
16506;SDS011;8366;51.020;7.642;2023-02-28T06:00:13;8.40;;;4.30;;
16506;SDS011;8366;51.020;7.642;2023-02-28T06:02:42;6.90;;;3.80;;
16506;SDS011;8366;51.020;7.642;2023-02-28T06:05:10;5.67;;;3.70;;
16506;SDS011;8366;51.020;7.642;2023-02-28T06:07:39;6.00;;;3.83;;
16506;SDS011;8366;51.020;7.642;2023-02-28T06:10:06;7.10;;;4.07;;
16506;SDS011;8366;51.020;7.642;2023-02-28T06:12:33;9.37;;;5.50;;
16506;SDS011;8366;51.020;7.642;2023-02-28T06:15:01;7.93;;;5.67;;
16506;SDS011;8366;51.020;7.642;2023-02-28T06:17:28;5.63;;;4.30;;
16506;SDS011;8366;51.020;7.642;2023-02-28T06:19:55;10.17;;;5.77;;
16506;SDS011;8366;51.020;7.642;2023-02-28T06:22:22;10.67;;;4.80;;
16506;SDS011;8366;51.020;7.642;2023-02-28T06:24:48;5.87;;;3.87;;
16506;SDS011;8366;51.020;7.642;2023-02-28T06:27:15;4.73;;;3.40;;
16506;SDS011;8366;51.020;7.642;2023-02-28T06:29:42;6.43;;;3.67;;
16506;SDS011;8366;51.020;7.642;2023-02-28T06:32:10;9.27;;;3.90;;
16506;SDS011;8366;51.020;7.642;2023-02-28T06:34:36;6.53;;;3.50;;
16506;SDS011;8366;51.020;7.642;2023-02-28T06:37:03;8.00;;;3.60;;
16506;SDS011;8366;51.020;7.642;2023-02-28T06:39:29;6.23;;;3.97;;
16506;SDS011;8366;51.020;7.642;2023-02-28T06:41:56;8.17;;;3.73;;
16506;SDS011;8366;51.020;7.642;2023-02-28T06:44:23;6.83;;;3.80;;
16506;SDS011;8366;51.020;7.642;2023-02-28T06:46:50;8.73;;;3.87;;
16506;SDS011;8366;51.020;7.642;2023-02-28T06:49:21;9.60;;;4.07;;
16506;SDS011;8366;51.020;7.642;2023-02-28T06:51:49;9.07;;;4.07;;
16506;SDS011;8366;51.020;7.642;2023-02-28T06:54:15;8.80;;;4.50;;
16506;SDS011;8366;51.020;7.642;2023-02-28T06:56:42;5.23;;;4.00;;
16506;SDS011;8366;51.020;7.642;2023-02-28T06:59:08;7.37;;;4.10;;
16506;SDS011;8366;51.020;7.642;2023-02-28T07:01:35;7.57;;;4.63;;
16506;SDS011;8366;51.020;7.642;2023-02-28T07:04:02;4.73;;;3.70;;
16506;SDS011;8366;51.020;7.642;2023-02-28T07:06:30;6.37;;;4.27;;
16506;SDS011;8366;51.020;7.642;2023-02-28T07:08:57;4.23;;;3.40;;
16506;SDS011;8366;51.020;7.642;2023-02-28T07:11:24;5.63;;;3.80;;
16506;SDS011;8366;51.020;7.642;2023-02-28T07:13:51;11.47;;;3.97;;
16506;SDS011;8366;51.020;7.642;2023-02-28T07:16:18;13.70;;;4.33;;
16506;SDS011;8366;51.020;7.642;2023-02-28T07:18:45;9.70;;;4.00;;
16506;SDS011;8366;51.020;7.642;2023-02-28T07:21:11;8.93;;;4.23;;
16506;SDS011;8366;51.020;7.642;2023-02-28T07:23:40;7.50;;;4.43;;
16506;SDS011;8366;51.020;7.642;2023-02-28T07:26:07;7.33;;;3.70;;
16506;SDS011;8366;51.020;7.642;2023-02-28T07:28:39;6.47;;;3.60;;
16506;SDS011;8366;51.020;7.642;2023-02-28T07:31:07;4.70;;;3.27;;
16506;SDS011;8366;51.020;7.642;2023-02-28T07:33:34;10.73;;;3.43;;
16506;SDS011;8366;51.020;7.642;2023-02-28T07:36:02;7.40;;;3.53;;
16506;SDS011;8366;51.020;7.642;2023-02-28T07:38:29;5.13;;;3.50;;
16506;SDS011;8366;51.020;7.642;2023-02-28T07:40:57;4.10;;;3.00;;
16506;SDS011;8366;51.020;7.642;2023-02-28T07:43:24;5.17;;;3.07;;
16506;SDS011;8366;51.020;7.642;2023-02-28T07:45:50;8.17;;;3.40;;
16506;SDS011;8366;51.020;7.642;2023-02-28T07:48:17;5.47;;;3.57;;
16506;SDS011;8366;51.020;7.642;2023-02-28T07:50:44;3.70;;;2.90;;
16506;SDS011;8366;51.020;7.642;2023-02-28T07:53:13;4.77;;;3.07;;
16506;SDS011;8366;51.020;7.642;2023-02-28T07:55:39;4.27;;;2.77;;
16506;SDS011;8366;51.020;7.642;2023-02-28T07:58:08;5.13;;;3.13;;
16506;SDS011;8366;51.020;7.642;2023-02-28T08:00:34;3.30;;;2.33;;
16506;SDS011;8366;51.020;7.642;2023-02-28T08:03:01;3.13;;;2.00;;
16506;SDS011;8366;51.020;7.642;2023-02-28T08:05:27;3.63;;;2.57;;
16506;SDS011;8366;51.020;7.642;2023-02-28T08:07:55;3.63;;;2.60;;
16506;SDS011;8366;51.020;7.642;2023-02-28T08:10:21;3.00;;;2.37;;
16506;SDS011;8366;51.020;7.642;2023-02-28T08:12:48;4.00;;;2.77;;
16506;SDS011;8366;51.020;7.642;2023-02-28T08:15:17;7.40;;;2.43;;
16506;SDS011;8366;51.020;7.642;2023-02-28T08:17:44;3.17;;;2.47;;
16506;SDS011;8366;51.020;7.642;2023-02-28T08:20:11;2.97;;;2.00;;
16506;SDS011;8366;51.020;7.642;2023-02-28T08:22:38;4.07;;;2.40;;
16506;SDS011;8366;51.020;7.642;2023-02-28T08:25:05;3.50;;;2.40;;
16506;SDS011;8366;51.020;7.642;2023-02-28T08:27:32;2.53;;;2.20;;
16506;SDS011;8366;51.020;7.642;2023-02-28T08:29:59;2.63;;;2.30;;
16506;SDS011;8366;51.020;7.642;2023-02-28T08:32:27;3.60;;;2.17;;
16506;SDS011;8366;51.020;7.642;2023-02-28T08:34:54;3.40;;;2.10;;
16506;SDS011;8366;51.020;7.642;2023-02-28T08:37:20;3.03;;;1.90;;
16506;SDS011;8366;51.020;7.642;2023-02-28T08:39:47;5.27;;;2.00;;
16506;SDS011;8366;51.020;7.642;2023-02-28T08:42:14;2.70;;;1.77;;
16506;SDS011;8366;51.020;7.642;2023-02-28T08:44:40;3.10;;;2.10;;
16506;SDS011;8366;51.020;7.642;2023-02-28T08:47:07;2.97;;;2.00;;
16506;SDS011;8366;51.020;7.642;2023-02-28T08:49:36;4.70;;;2.20;;
16506;SDS011;8366;51.020;7.642;2023-02-28T08:52:02;2.43;;;1.63;;
16506;SDS011;8366;51.020;7.642;2023-02-28T08:54:29;2.17;;;1.80;;
16506;SDS011;8366;51.020;7.642;2023-02-28T08:56:57;1.87;;;1.73;;
16506;SDS011;8366;51.020;7.642;2023-02-28T08:59:23;2.83;;;1.97;;
16506;SDS011;8366;51.020;7.642;2023-02-28T09:01:50;2.93;;;2.27;;
16506;SDS011;8366;51.020;7.642;2023-02-28T09:04:16;3.30;;;2.30;;
16506;SDS011;8366;51.020;7.642;2023-02-28T09:06:45;3.27;;;2.20;;
16506;SDS011;8366;51.020;7.642;2023-02-28T09:09:13;2.87;;;2.20;;
16506;SDS011;8366;51.020;7.642;2023-02-28T09:11:40;3.80;;;2.13;;
16506;SDS011;8366;51.020;7.642;2023-02-28T09:14:07;3.57;;;2.57;;
16506;SDS011;8366;51.020;7.642;2023-02-28T09:16:33;2.93;;;2.00;;
16506;SDS011;8366;51.020;7.642;2023-02-28T09:19:01;2.83;;;2.37;;
16506;SDS011;8366;51.020;7.642;2023-02-28T09:21:27;3.50;;;2.13;;
16506;SDS011;8366;51.020;7.642;2023-02-28T09:23:55;3.30;;;2.30;;
16506;SDS011;8366;51.020;7.642;2023-02-28T09:26:22;2.60;;;2.20;;
16506;SDS011;8366;51.020;7.642;2023-02-28T09:28:52;4.43;;;2.37;;
16506;SDS011;8366;51.020;7.642;2023-02-28T09:31:20;4.30;;;2.57;;
16506;SDS011;8366;51.020;7.642;2023-02-28T09:33:48;2.60;;;2.20;;
16506;SDS011;8366;51.020;7.642;2023-02-28T09:36:16;3.87;;;2.43;;
16506;SDS011;8366;51.020;7.642;2023-02-28T09:38:42;2.43;;;2.20;;
16506;SDS011;8366;51.020;7.642;2023-02-28T09:41:13;3.17;;;2.43;;
16506;SDS011;8366;51.020;7.642;2023-02-28T09:43:44;2.63;;;2.03;;
16506;SDS011;8366;51.020;7.642;2023-02-28T09:46:14;6.43;;;2.50;;
16506;SDS011;8366;51.020;7.642;2023-02-28T09:48:48;3.70;;;2.50;;
16506;SDS011;8366;51.020;7.642;2023-02-28T09:51:18;3.23;;;1.90;;
16506;SDS011;8366;51.020;7.642;2023-02-28T09:53:53;2.80;;;1.97;;
16506;SDS011;8366;51.020;7.642;2023-02-28T09:56:22;4.13;;;1.60;;
16506;SDS011;8366;51.020;7.642;2023-02-28T09:58:53;3.43;;;2.00;;
16506;SDS011;8366;51.020;7.642;2023-02-28T10:01:21;3.47;;;1.90;;
16506;SDS011;8366;51.020;7.642;2023-02-28T10:03:55;2.67;;;2.00;;
16506;SDS011;8366;51.020;7.642;2023-02-28T10:06:26;2.50;;;2.20;;
16506;SDS011;8366;51.020;7.642;2023-02-28T10:08:56;5.30;;;2.20;;
16506;SDS011;8366;51.020;7.642;2023-02-28T10:11:28;2.67;;;2.00;;
16506;SDS011;8366;51.020;7.642;2023-02-28T10:13:56;3.27;;;2.40;;
16506;SDS011;8366;51.020;7.642;2023-02-28T10:16:28;2.53;;;2.20;;
16506;SDS011;8366;51.020;7.642;2023-02-28T10:18:59;3.40;;;2.50;;
16506;SDS011;8366;51.020;7.642;2023-02-28T10:21:30;7.93;;;2.87;;
16506;SDS011;8366;51.020;7.642;2023-02-28T10:24:02;3.53;;;2.60;;
16506;SDS011;8366;51.020;7.642;2023-02-28T10:26:33;4.80;;;3.10;;
16506;SDS011;8366;51.020;7.642;2023-02-28T10:28:59;6.30;;;3.40;;
16506;SDS011;8366;51.020;7.642;2023-02-28T10:31:27;5.20;;;2.90;;
16506;SDS011;8366;51.020;7.642;2023-02-28T10:33:54;4.10;;;2.67;;
16506;SDS011;8366;51.020;7.642;2023-02-28T10:36:21;3.43;;;2.50;;
16506;SDS011;8366;51.020;7.642;2023-02-28T10:38:48;3.43;;;2.83;;
16506;SDS011;8366;51.020;7.642;2023-02-28T10:41:17;4.37;;;2.63;;
16506;SDS011;8366;51.020;7.642;2023-02-28T10:43:55;3.33;;;2.60;;
16506;SDS011;8366;51.020;7.642;2023-02-28T10:46:39;3.20;;;2.60;;
16506;SDS011;8366;51.020;7.642;2023-02-28T10:49:12;5.00;;;2.60;;
16506;SDS011;8366;51.020;7.642;2023-02-28T10:51:40;3.77;;;2.63;;
16506;SDS011;8366;51.020;7.642;2023-02-28T10:54:14;6.23;;;3.37;;
16506;SDS011;8366;51.020;7.642;2023-02-28T10:56:44;4.13;;;2.63;;
16506;SDS011;8366;51.020;7.642;2023-02-28T10:59:27;2.73;;;2.50;;
16506;SDS011;8366;51.020;7.642;2023-02-28T11:01:55;6.23;;;2.80;;
16506;SDS011;8366;51.020;7.642;2023-02-28T11:04:32;3.90;;;2.57;;
16506;SDS011;8366;51.020;7.642;2023-02-28T11:07:03;4.27;;;3.07;;
16506;SDS011;8366;51.020;7.642;2023-02-28T11:09:33;4.63;;;3.00;;
16506;SDS011;8366;51.020;7.642;2023-02-28T11:12:01;5.80;;;3.60;;
16506;SDS011;8366;51.020;7.642;2023-02-28T11:14:30;4.47;;;2.93;;
16506;SDS011;8366;51.020;7.642;2023-02-28T11:17:02;3.87;;;2.63;;
16506;SDS011;8366;51.020;7.642;2023-02-28T11:19:38;4.17;;;3.33;;
16506;SDS011;8366;51.020;7.642;2023-02-28T11:22:06;4.33;;;2.87;;
16506;SDS011;8366;51.020;7.642;2023-02-28T11:24:33;3.43;;;3.00;;
16506;SDS011;8366;51.020;7.642;2023-02-28T11:27:02;4.60;;;2.93;;
16506;SDS011;8366;51.020;7.642;2023-02-28T11:29:31;3.80;;;2.90;;
16506;SDS011;8366;51.020;7.642;2023-02-28T11:32:04;4.93;;;3.07;;
16506;SDS011;8366;51.020;7.642;2023-02-28T11:34:36;4.33;;;3.30;;
16506;SDS011;8366;51.020;7.642;2023-02-28T11:37:04;4.53;;;3.20;;
16506;SDS011;8366;51.020;7.642;2023-02-28T11:39:34;4.03;;;3.23;;
16506;SDS011;8366;51.020;7.642;2023-02-28T11:42:15;4.50;;;3.07;;
16506;SDS011;8366;51.020;7.642;2023-02-28T11:44:53;3.27;;;2.80;;
16506;SDS011;8366;51.020;7.642;2023-02-28T11:47:28;4.33;;;2.97;;
16506;SDS011;8366;51.020;7.642;2023-02-28T11:50:04;5.17;;;2.83;;
16506;SDS011;8366;51.020;7.642;2023-02-28T11:52:43;4.43;;;2.90;;
16506;SDS011;8366;51.020;7.642;2023-02-28T11:55:16;5.73;;;3.00;;
16506;SDS011;8366;51.020;7.642;2023-02-28T12:00:41;3.63;;;2.73;;
16506;SDS011;8366;51.020;7.642;2023-02-28T12:03:16;3.93;;;2.90;;
16506;SDS011;8366;51.020;7.642;2023-02-28T12:05:49;4.90;;;2.90;;
16506;SDS011;8366;51.020;7.642;2023-02-28T12:08:26;4.13;;;2.97;;
16506;SDS011;8366;51.020;7.642;2023-02-28T12:11:02;3.87;;;2.83;;
16506;SDS011;8366;51.020;7.642;2023-02-28T12:13:36;2.97;;;2.60;;
16506;SDS011;8366;51.020;7.642;2023-02-28T12:19:15;3.37;;;2.90;;
16506;SDS011;8366;51.020;7.642;2023-02-28T12:21:50;4.47;;;3.20;;
16506;SDS011;8366;51.020;7.642;2023-02-28T12:28:12;4.27;;;2.80;;
16506;SDS011;8366;51.020;7.642;2023-02-28T12:30:41;3.40;;;2.90;;
16506;SDS011;8366;51.020;7.642;2023-02-28T12:33:31;3.87;;;3.13;;
16506;SDS011;8366;51.020;7.642;2023-02-28T12:36:08;5.23;;;3.23;;
16506;SDS011;8366;51.020;7.642;2023-02-28T12:38:39;4.17;;;3.10;;
16506;SDS011;8366;51.020;7.642;2023-02-28T12:41:09;3.93;;;3.03;;
16506;SDS011;8366;51.020;7.642;2023-02-28T12:43:40;3.43;;;2.80;;
16506;SDS011;8366;51.020;7.642;2023-02-28T12:46:12;3.43;;;3.13;;
16506;SDS011;8366;51.020;7.642;2023-02-28T12:48:46;4.30;;;3.13;;
16506;SDS011;8366;51.020;7.642;2023-02-28T12:51:16;4.07;;;3.30;;
16506;SDS011;8366;51.020;7.642;2023-02-28T12:53:49;4.37;;;3.47;;
16506;SDS011;8366;51.020;7.642;2023-02-28T12:56:24;5.20;;;3.40;;
16506;SDS011;8366;51.020;7.642;2023-02-28T12:58:57;3.17;;;2.60;;
16506;SDS011;8366;51.020;7.642;2023-02-28T13:08:01;4.43;;;3.23;;
16506;SDS011;8366;51.020;7.642;2023-02-28T13:10:43;4.40;;;3.17;;
16506;SDS011;8366;51.020;7.642;2023-02-28T13:13:14;4.23;;;3.23;;
16506;SDS011;8366;51.020;7.642;2023-02-28T13:15:56;4.80;;;3.30;;
16506;SDS011;8366;51.020;7.642;2023-02-28T13:18:28;4.03;;;3.27;;
16506;SDS011;8366;51.020;7.642;2023-02-28T13:20:58;3.60;;;2.93;;
16506;SDS011;8366;51.020;7.642;2023-02-28T13:23:38;4.77;;;3.10;;
16506;SDS011;8366;51.020;7.642;2023-02-28T13:26:07;4.47;;;3.13;;
16506;SDS011;8366;51.020;7.642;2023-02-28T13:37:41;3.93;;;2.83;;
16506;SDS011;8366;51.020;7.642;2023-02-28T13:40:32;6.03;;;3.97;;
16506;SDS011;8366;51.020;7.642;2023-02-28T13:43:03;5.40;;;3.37;;
16506;SDS011;8366;51.020;7.642;2023-02-28T13:45:35;5.10;;;3.20;;
16506;SDS011;8366;51.020;7.642;2023-02-28T13:48:03;4.43;;;3.40;;
16506;SDS011;8366;51.020;7.642;2023-02-28T13:50:41;4.27;;;3.10;;
16506;SDS011;8366;51.020;7.642;2023-02-28T13:53:30;4.50;;;2.93;;
16506;SDS011;8366;51.020;7.642;2023-02-28T13:56:09;4.73;;;3.30;;
16506;SDS011;8366;51.020;7.642;2023-02-28T13:58:47;5.07;;;3.40;;
16506;SDS011;8366;51.020;7.642;2023-02-28T14:01:26;4.43;;;3.33;;
16506;SDS011;8366;51.020;7.642;2023-02-28T14:04:09;6.40;;;3.70;;
16506;SDS011;8366;51.020;7.642;2023-02-28T14:06:55;3.77;;;3.33;;
16506;SDS011;8366;51.020;7.642;2023-02-28T14:09:23;4.57;;;3.33;;
16506;SDS011;8366;51.020;7.642;2023-02-28T14:11:53;4.77;;;3.10;;
16506;SDS011;8366;51.020;7.642;2023-02-28T14:17:20;3.50;;;3.20;;
16506;SDS011;8366;51.020;7.642;2023-02-28T14:19:48;3.47;;;3.17;;
16506;SDS011;8366;51.020;7.642;2023-02-28T14:22:18;4.43;;;3.07;;
16506;SDS011;8366;51.020;7.642;2023-02-28T14:24:59;4.10;;;3.50;;
16506;SDS011;8366;51.020;7.642;2023-02-28T14:27:42;5.97;;;3.50;;
16506;SDS011;8366;51.020;7.642;2023-02-28T14:30:16;5.80;;;3.60;;
16506;SDS011;8366;51.020;7.642;2023-02-28T14:33:12;4.40;;;3.37;;
16506;SDS011;8366;51.020;7.642;2023-02-28T14:35:50;3.90;;;3.30;;
16506;SDS011;8366;51.020;7.642;2023-02-28T14:38:32;3.90;;;3.30;;
16506;SDS011;8366;51.020;7.642;2023-02-28T14:41:02;4.00;;;3.00;;
16506;SDS011;8366;51.020;7.642;2023-02-28T14:43:34;5.57;;;3.67;;
16506;SDS011;8366;51.020;7.642;2023-02-28T14:46:03;4.63;;;3.50;;
16506;SDS011;8366;51.020;7.642;2023-02-28T14:48:31;4.10;;;3.07;;
16506;SDS011;8366;51.020;7.642;2023-02-28T14:50:59;4.10;;;3.20;;
16506;SDS011;8366;51.020;7.642;2023-02-28T14:53:27;4.67;;;3.57;;
16506;SDS011;8366;51.020;7.642;2023-02-28T14:55:56;4.27;;;3.27;;
16506;SDS011;8366;51.020;7.642;2023-02-28T14:58:23;4.00;;;3.23;;
16506;SDS011;8366;51.020;7.642;2023-02-28T15:00:53;4.43;;;3.00;;
16506;SDS011;8366;51.020;7.642;2023-02-28T15:03:22;5.23;;;3.10;;
16506;SDS011;8366;51.020;7.642;2023-02-28T15:05:53;4.17;;;3.20;;
16506;SDS011;8366;51.020;7.642;2023-02-28T15:08:20;4.00;;;3.07;;
16506;SDS011;8366;51.020;7.642;2023-02-28T15:10:51;5.00;;;3.27;;
16506;SDS011;8366;51.020;7.642;2023-02-28T15:13:19;4.97;;;3.30;;
16506;SDS011;8366;51.020;7.642;2023-02-28T15:15:48;5.07;;;3.03;;
16506;SDS011;8366;51.020;7.642;2023-02-28T15:18:25;6.37;;;3.30;;
16506;SDS011;8366;51.020;7.642;2023-02-28T15:20:55;5.00;;;3.50;;
16506;SDS011;8366;51.020;7.642;2023-02-28T15:23:22;4.10;;;3.33;;
16506;SDS011;8366;51.020;7.642;2023-02-28T15:25:49;6.63;;;3.80;;
16506;SDS011;8366;51.020;7.642;2023-02-28T15:28:18;5.50;;;3.57;;
16506;SDS011;8366;51.020;7.642;2023-02-28T15:30:50;5.03;;;3.20;;
16506;SDS011;8366;51.020;7.642;2023-02-28T15:33:19;5.17;;;3.37;;
16506;SDS011;8366;51.020;7.642;2023-02-28T15:35:48;4.40;;;3.60;;
16506;SDS011;8366;51.020;7.642;2023-02-28T15:38:17;5.23;;;3.30;;
16506;SDS011;8366;51.020;7.642;2023-02-28T15:40:50;3.70;;;3.30;;
16506;SDS011;8366;51.020;7.642;2023-02-28T15:43:23;3.57;;;3.03;;
16506;SDS011;8366;51.020;7.642;2023-02-28T15:45:51;6.80;;;3.90;;
16506;SDS011;8366;51.020;7.642;2023-02-28T15:48:18;9.97;;;4.73;;
16506;SDS011;8366;51.020;7.642;2023-02-28T15:50:47;7.13;;;4.40;;
16506;SDS011;8366;51.020;7.642;2023-02-28T15:53:18;8.13;;;4.67;;